sensor_id;sensor_type;location;lat;lon;timestamp;temperature;humidity
23100;DHT22;53791;50.696;4.396;2023-01-15T00:01:24;8.00;99.90
23100;DHT22;53791;50.696;4.396;2023-01-15T00:03:53;8.00;99.90
23100;DHT22;53791;50.696;4.396;2023-01-15T00:09:33;7.90;99.90
23100;DHT22;53791;50.696;4.396;2023-01-15T00:12:03;7.80;99.90
23100;DHT22;53791;50.696;4.396;2023-01-15T00:14:31;7.90;99.90
23100;DHT22;53791;50.696;4.396;2023-01-15T00:16:58;7.90;99.90
23100;DHT22;53791;50.696;4.396;2023-01-15T00:19:26;7.90;99.90
23100;DHT22;53791;50.696;4.396;2023-01-15T00:21:53;7.90;99.90
23100;DHT22;53791;50.696;4.396;2023-01-15T00:24:21;7.80;99.90
23100;DHT22;53791;50.696;4.396;2023-01-15T00:27:09;7.80;99.90
23100;DHT22;53791;50.696;4.396;2023-01-15T00:29:54;7.80;99.90
23100;DHT22;53791;50.696;4.396;2023-01-15T00:32:24;7.90;99.90
23100;DHT22;53791;50.696;4.396;2023-01-15T00:34:52;7.90;99.90
23100;DHT22;53791;50.696;4.396;2023-01-15T00:37:21;7.80;99.90
23100;DHT22;53791;50.696;4.396;2023-01-15T00:39:53;7.80;99.90
23100;DHT22;53791;50.696;4.396;2023-01-15T00:42:18;7.80;99.90
23100;DHT22;53791;50.696;4.396;2023-01-15T00:44:47;7.80;99.90
23100;DHT22;53791;50.696;4.396;2023-01-15T00:47:15;7.90;99.90
23100;DHT22;53791;50.696;4.396;2023-01-15T00:49:44;7.80;99.90
23100;DHT22;53791;50.696;4.396;2023-01-15T00:52:12;7.70;99.90
23100;DHT22;53791;50.696;4.396;2023-01-15T00:54:39;7.70;99.90
23100;DHT22;53791;50.696;4.396;2023-01-15T00:57:07;7.60;99.90
23100;DHT22;53791;50.696;4.396;2023-01-15T00:59:36;7.70;99.90
23100;DHT22;53791;50.696;4.396;2023-01-15T01:02:03;7.60;99.90
23100;DHT22;53791;50.696;4.396;2023-01-15T01:04:31;7.60;99.90
23100;DHT22;53791;50.696;4.396;2023-01-15T01:06:58;7.50;99.90
23100;DHT22;53791;50.696;4.396;2023-01-15T01:09:26;7.60;99.90
23100;DHT22;53791;50.696;4.396;2023-01-15T01:11:55;7.60;99.90
23100;DHT22;53791;50.696;4.396;2023-01-15T01:14:24;7.60;99.90
23100;DHT22;53791;50.696;4.396;2023-01-15T01:16:52;7.60;99.90
23100;DHT22;53791;50.696;4.396;2023-01-15T01:19:21;7.60;99.90
23100;DHT22;53791;50.696;4.396;2023-01-15T01:21:50;7.60;99.90
23100;DHT22;53791;50.696;4.396;2023-01-15T01:24:20;7.50;99.90
23100;DHT22;53791;50.696;4.396;2023-01-15T01:26:49;7.40;99.90
23100;DHT22;53791;50.696;4.396;2023-01-15T01:29:19;7.40;99.90
23100;DHT22;53791;50.696;4.396;2023-01-15T01:32:04;7.40;99.90
23100;DHT22;53791;50.696;4.396;2023-01-15T01:34:22;7.40;99.90
23100;DHT22;53791;50.696;4.396;2023-01-15T01:36:48;7.30;99.90
23100;DHT22;53791;50.696;4.396;2023-01-15T01:39:18;7.30;99.90
23100;DHT22;53791;50.696;4.396;2023-01-15T01:41:48;7.30;99.90
23100;DHT22;53791;50.696;4.396;2023-01-15T01:47:13;7.40;99.90
23100;DHT22;53791;50.696;4.396;2023-01-15T01:49:46;7.30;99.90
23100;DHT22;53791;50.696;4.396;2023-01-15T01:52:26;7.30;99.90
23100;DHT22;53791;50.696;4.396;2023-01-15T01:54:49;7.40;99.90
23100;DHT22;53791;50.696;4.396;2023-01-15T01:57:19;7.30;99.90
23100;DHT22;53791;50.696;4.396;2023-01-15T01:59:47;7.40;99.90
23100;DHT22;53791;50.696;4.396;2023-01-15T02:02:17;7.40;99.90
23100;DHT22;53791;50.696;4.396;2023-01-15T02:04:45;7.30;99.90
23100;DHT22;53791;50.696;4.396;2023-01-15T02:07:13;7.30;99.90
23100;DHT22;53791;50.696;4.396;2023-01-15T02:09:41;7.20;99.90
23100;DHT22;53791;50.696;4.396;2023-01-15T02:12:19;7.20;99.90
23100;DHT22;53791;50.696;4.396;2023-01-15T02:14:57;7.20;99.90
23100;DHT22;53791;50.696;4.396;2023-01-15T02:17:32;7.20;99.90
23100;DHT22;53791;50.696;4.396;2023-01-15T02:20:09;7.20;99.90
23100;DHT22;53791;50.696;4.396;2023-01-15T02:28:05;7.00;99.90
23100;DHT22;53791;50.696;4.396;2023-01-15T02:30:34;7.10;99.90
23100;DHT22;53791;50.696;4.396;2023-01-15T02:33:23;7.10;99.90
23100;DHT22;53791;50.696;4.396;2023-01-15T02:35:53;7.00;99.90
23100;DHT22;53791;50.696;4.396;2023-01-15T02:38:23;7.00;99.90
23100;DHT22;53791;50.696;4.396;2023-01-15T02:40:53;7.00;99.90
23100;DHT22;53791;50.696;4.396;2023-01-15T02:43:23;7.00;99.90
23100;DHT22;53791;50.696;4.396;2023-01-15T02:45:53;6.90;99.90
23100;DHT22;53791;50.696;4.396;2023-01-15T02:48:24;7.00;99.90
23100;DHT22;53791;50.696;4.396;2023-01-15T02:51:00;7.00;99.90
23100;DHT22;53791;50.696;4.396;2023-01-15T02:53:25;7.00;99.90
23100;DHT22;53791;50.696;4.396;2023-01-15T02:55:57;7.00;99.90
23100;DHT22;53791;50.696;4.396;2023-01-15T02:58:27;6.90;99.90
23100;DHT22;53791;50.696;4.396;2023-01-15T03:00:56;6.90;99.90
23100;DHT22;53791;50.696;4.396;2023-01-15T03:03:36;6.80;99.90
23100;DHT22;53791;50.696;4.396;2023-01-15T03:08:43;6.90;99.90
23100;DHT22;53791;50.696;4.396;2023-01-15T03:11:13;6.80;99.90
23100;DHT22;53791;50.696;4.396;2023-01-15T03:13:56;6.80;99.90
23100;DHT22;53791;50.696;4.396;2023-01-15T03:16:30;6.80;99.90
23100;DHT22;53791;50.696;4.396;2023-01-15T03:19:05;6.80;99.90
23100;DHT22;53791;50.696;4.396;2023-01-15T03:21:54;6.80;99.90
23100;DHT22;53791;50.696;4.396;2023-01-15T03:24:31;6.70;99.90
23100;DHT22;53791;50.696;4.396;2023-01-15T03:26:56;6.70;99.90
23100;DHT22;53791;50.696;4.396;2023-01-15T03:29:27;6.70;99.90
23100;DHT22;53791;50.696;4.396;2023-01-15T03:31:55;6.70;99.90
23100;DHT22;53791;50.696;4.396;2023-01-15T03:34:24;6.70;99.90
23100;DHT22;53791;50.696;4.396;2023-01-15T03:36:54;6.70;99.90
23100;DHT22;53791;50.696;4.396;2023-01-15T03:39:22;6.70;99.90
23100;DHT22;53791;50.696;4.396;2023-01-15T03:44:52;6.70;99.90
23100;DHT22;53791;50.696;4.396;2023-01-15T03:47:41;6.70;99.90
23100;DHT22;53791;50.696;4.396;2023-01-15T03:55:36;6.60;99.90
23100;DHT22;53791;50.696;4.396;2023-01-15T03:58:01;6.60;99.90
23100;DHT22;53791;50.696;4.396;2023-01-15T04:00:51;6.60;99.90
23100;DHT22;53791;50.696;4.396;2023-01-15T04:03:13;6.60;99.90
23100;DHT22;53791;50.696;4.396;2023-01-15T04:05:40;6.60;99.90
23100;DHT22;53791;50.696;4.396;2023-01-15T04:08:08;6.50;99.90
23100;DHT22;53791;50.696;4.396;2023-01-15T04:10:37;6.50;99.90
23100;DHT22;53791;50.696;4.396;2023-01-15T04:13:09;6.50;99.90
23100;DHT22;53791;50.696;4.396;2023-01-15T04:15:40;6.50;99.90
23100;DHT22;53791;50.696;4.396;2023-01-15T04:18:09;6.50;99.90
23100;DHT22;53791;50.696;4.396;2023-01-15T04:20:36;6.40;99.90
23100;DHT22;53791;50.696;4.396;2023-01-15T04:23:04;6.40;99.90
23100;DHT22;53791;50.696;4.396;2023-01-15T04:25:31;6.40;99.90
23100;DHT22;53791;50.696;4.396;2023-01-15T04:27:59;6.40;99.90
23100;DHT22;53791;50.696;4.396;2023-01-15T04:30:28;6.30;99.90
23100;DHT22;53791;50.696;4.396;2023-01-15T04:32:55;6.30;99.90
23100;DHT22;53791;50.696;4.396;2023-01-15T04:35:28;6.30;99.90
23100;DHT22;53791;50.696;4.396;2023-01-15T04:37:56;6.30;99.90
23100;DHT22;53791;50.696;4.396;2023-01-15T04:40:26;6.30;99.90
23100;DHT22;53791;50.696;4.396;2023-01-15T04:43:13;6.30;99.90
23100;DHT22;53791;50.696;4.396;2023-01-15T04:45:58;6.30;99.90
23100;DHT22;53791;50.696;4.396;2023-01-15T04:51:02;6.30;99.90
23100;DHT22;53791;50.696;4.396;2023-01-15T04:58:48;6.30;99.90
23100;DHT22;53791;50.696;4.396;2023-01-15T05:01:16;6.30;99.90
23100;DHT22;53791;50.696;4.396;2023-01-15T05:06:13;6.20;99.90
23100;DHT22;53791;50.696;4.396;2023-01-15T05:08:43;6.20;99.90
23100;DHT22;53791;50.696;4.396;2023-01-15T05:11:11;6.20;99.90
23100;DHT22;53791;50.696;4.396;2023-01-15T05:13:38;6.20;99.90
23100;DHT22;53791;50.696;4.396;2023-01-15T05:18:41;6.10;99.90
23100;DHT22;53791;50.696;4.396;2023-01-15T05:21:16;6.10;99.90
23100;DHT22;53791;50.696;4.396;2023-01-15T05:23:44;6.10;99.90
23100;DHT22;53791;50.696;4.396;2023-01-15T05:26:24;6.00;99.90
23100;DHT22;53791;50.696;4.396;2023-01-15T05:28:54;6.00;99.90
23100;DHT22;53791;50.696;4.396;2023-01-15T05:31:23;5.90;99.90
23100;DHT22;53791;50.696;4.396;2023-01-15T05:33:57;5.90;99.90
23100;DHT22;53791;50.696;4.396;2023-01-15T05:36:23;6.00;99.90
23100;DHT22;53791;50.696;4.396;2023-01-15T05:38:52;6.00;99.90
23100;DHT22;53791;50.696;4.396;2023-01-15T05:41:21;5.90;99.90
23100;DHT22;53791;50.696;4.396;2023-01-15T05:44:11;6.00;99.90
23100;DHT22;53791;50.696;4.396;2023-01-15T05:46:39;5.90;99.90
23100;DHT22;53791;50.696;4.396;2023-01-15T05:49:17;5.90;99.90
23100;DHT22;53791;50.696;4.396;2023-01-15T05:51:46;5.90;99.90
23100;DHT22;53791;50.696;4.396;2023-01-15T05:54:20;6.00;99.90
23100;DHT22;53791;50.696;4.396;2023-01-15T05:56:44;6.00;99.90
23100;DHT22;53791;50.696;4.396;2023-01-15T05:59:18;6.00;99.90
23100;DHT22;53791;50.696;4.396;2023-01-15T06:01:46;6.00;99.90
23100;DHT22;53791;50.696;4.396;2023-01-15T06:04:13;5.80;99.90
23100;DHT22;53791;50.696;4.396;2023-01-15T06:06:43;5.90;99.90
23100;DHT22;53791;50.696;4.396;2023-01-15T06:09:10;5.90;99.90
23100;DHT22;53791;50.696;4.396;2023-01-15T06:11:41;5.90;99.90
23100;DHT22;53791;50.696;4.396;2023-01-15T06:14:10;5.80;99.90
23100;DHT22;53791;50.696;4.396;2023-01-15T06:17:18;5.80;99.90
23100;DHT22;53791;50.696;4.396;2023-01-15T06:19:23;5.80;99.90
23100;DHT22;53791;50.696;4.396;2023-01-15T06:21:50;5.90;99.90
23100;DHT22;53791;50.696;4.396;2023-01-15T06:24:18;5.90;99.90
23100;DHT22;53791;50.696;4.396;2023-01-15T06:26:46;6.00;99.90
23100;DHT22;53791;50.696;4.396;2023-01-15T06:29:15;6.00;99.90
23100;DHT22;53791;50.696;4.396;2023-01-15T06:31:44;6.00;99.90
23100;DHT22;53791;50.696;4.396;2023-01-15T06:34:11;6.00;99.90
23100;DHT22;53791;50.696;4.396;2023-01-15T06:36:39;6.00;99.90
23100;DHT22;53791;50.696;4.396;2023-01-15T06:39:07;6.00;99.90
23100;DHT22;53791;50.696;4.396;2023-01-15T06:41:34;5.90;99.90
23100;DHT22;53791;50.696;4.396;2023-01-15T06:44:20;5.90;99.90
23100;DHT22;53791;50.696;4.396;2023-01-15T06:47:15;6.00;99.90
23100;DHT22;53791;50.696;4.396;2023-01-15T06:49:57;5.90;99.90
23100;DHT22;53791;50.696;4.396;2023-01-15T06:52:28;5.90;99.90
23100;DHT22;53791;50.696;4.396;2023-01-15T06:54:56;5.80;99.90
23100;DHT22;53791;50.696;4.396;2023-01-15T06:57:23;5.80;99.90
23100;DHT22;53791;50.696;4.396;2023-01-15T06:59:53;5.80;99.90
23100;DHT22;53791;50.696;4.396;2023-01-15T07:02:26;5.70;99.90
23100;DHT22;53791;50.696;4.396;2023-01-15T07:04:58;5.70;99.90
23100;DHT22;53791;50.696;4.396;2023-01-15T07:07:23;5.60;99.90
23100;DHT22;53791;50.696;4.396;2023-01-15T07:09:53;5.60;99.90
23100;DHT22;53791;50.696;4.396;2023-01-15T07:12:26;5.60;99.90
23100;DHT22;53791;50.696;4.396;2023-01-15T07:14:55;5.60;99.90
23100;DHT22;53791;50.696;4.396;2023-01-15T07:17:23;5.60;99.90
23100;DHT22;53791;50.696;4.396;2023-01-15T07:19:50;5.60;99.90
23100;DHT22;53791;50.696;4.396;2023-01-15T07:22:18;5.60;99.90
23100;DHT22;53791;50.696;4.396;2023-01-15T07:24:45;5.50;99.90
23100;DHT22;53791;50.696;4.396;2023-01-15T07:27:13;5.50;99.90
23100;DHT22;53791;50.696;4.396;2023-01-15T07:29:40;5.40;99.90
23100;DHT22;53791;50.696;4.396;2023-01-15T07:32:17;5.40;99.90
23100;DHT22;53791;50.696;4.396;2023-01-15T07:34:41;5.40;99.90
23100;DHT22;53791;50.696;4.396;2023-01-15T07:37:09;5.40;99.90
23100;DHT22;53791;50.696;4.396;2023-01-15T07:39:43;5.40;99.90
23100;DHT22;53791;50.696;4.396;2023-01-15T07:42:10;5.40;99.90
23100;DHT22;53791;50.696;4.396;2023-01-15T07:44:58;5.30;99.90
23100;DHT22;53791;50.696;4.396;2023-01-15T07:47:42;5.30;99.90
23100;DHT22;53791;50.696;4.396;2023-01-15T07:50:28;5.30;99.90
23100;DHT22;53791;50.696;4.396;2023-01-15T07:52:55;5.30;99.90
23100;DHT22;53791;50.696;4.396;2023-01-15T07:55:23;5.20;99.90
23100;DHT22;53791;50.696;4.396;2023-01-15T07:57:51;5.20;99.90
23100;DHT22;53791;50.696;4.396;2023-01-15T08:00:28;5.30;99.90
23100;DHT22;53791;50.696;4.396;2023-01-15T08:03:12;5.20;99.90
23100;DHT22;53791;50.696;4.396;2023-01-15T08:05:41;5.20;99.90
23100;DHT22;53791;50.696;4.396;2023-01-15T08:08:20;5.20;99.90
23100;DHT22;53791;50.696;4.396;2023-01-15T08:11:01;5.20;99.90
23100;DHT22;53791;50.696;4.396;2023-01-15T08:13:48;5.20;99.90
23100;DHT22;53791;50.696;4.396;2023-01-15T08:16:35;5.20;99.90
23100;DHT22;53791;50.696;4.396;2023-01-15T08:19:03;5.20;99.90
23100;DHT22;53791;50.696;4.396;2023-01-15T08:21:32;5.20;99.90
23100;DHT22;53791;50.696;4.396;2023-01-15T08:24:01;5.20;99.90
23100;DHT22;53791;50.696;4.396;2023-01-15T08:26:33;5.20;99.90
23100;DHT22;53791;50.696;4.396;2023-01-15T08:29:04;5.20;99.90
23100;DHT22;53791;50.696;4.396;2023-01-15T08:31:32;5.30;99.90
23100;DHT22;53791;50.696;4.396;2023-01-15T08:33:59;5.20;99.90
23100;DHT22;53791;50.696;4.396;2023-01-15T08:36:27;5.30;99.90
23100;DHT22;53791;50.696;4.396;2023-01-15T08:38:54;5.30;99.90
23100;DHT22;53791;50.696;4.396;2023-01-15T08:41:22;5.30;99.90
23100;DHT22;53791;50.696;4.396;2023-01-15T08:43:50;5.30;99.90
23100;DHT22;53791;50.696;4.396;2023-01-15T08:46:24;5.20;99.90
23100;DHT22;53791;50.696;4.396;2023-01-15T08:48:51;5.30;99.90
23100;DHT22;53791;50.696;4.396;2023-01-15T08:51:19;5.40;99.90
23100;DHT22;53791;50.696;4.396;2023-01-15T08:53:46;5.40;99.90
23100;DHT22;53791;50.696;4.396;2023-01-15T08:56:17;5.40;99.90
23100;DHT22;53791;50.696;4.396;2023-01-15T08:58:46;5.40;99.90
23100;DHT22;53791;50.696;4.396;2023-01-15T09:01:14;5.40;99.90
23100;DHT22;53791;50.696;4.396;2023-01-15T09:03:45;5.40;99.90
23100;DHT22;53791;50.696;4.396;2023-01-15T09:06:19;5.50;99.90
23100;DHT22;53791;50.696;4.396;2023-01-15T09:08:44;5.40;99.90
23100;DHT22;53791;50.696;4.396;2023-01-15T09:11:16;5.40;99.90
23100;DHT22;53791;50.696;4.396;2023-01-15T09:13:44;5.50;99.90
23100;DHT22;53791;50.696;4.396;2023-01-15T09:16:13;5.60;99.90
23100;DHT22;53791;50.696;4.396;2023-01-15T09:18:57;5.60;99.90
23100;DHT22;53791;50.696;4.396;2023-01-15T09:21:12;5.70;99.90
23100;DHT22;53791;50.696;4.396;2023-01-15T09:23:39;5.80;99.90
23100;DHT22;53791;50.696;4.396;2023-01-15T09:26:20;5.90;99.90
23100;DHT22;53791;50.696;4.396;2023-01-15T09:28:40;5.90;99.90
23100;DHT22;53791;50.696;4.396;2023-01-15T09:31:07;6.10;99.90
23100;DHT22;53791;50.696;4.396;2023-01-15T09:33:35;6.30;99.90
23100;DHT22;53791;50.696;4.396;2023-01-15T09:36:03;6.30;99.90
23100;DHT22;53791;50.696;4.396;2023-01-15T09:38:30;6.10;99.90
23100;DHT22;53791;50.696;4.396;2023-01-15T09:41:07;5.90;99.90
23100;DHT22;53791;50.696;4.396;2023-01-15T09:43:52;5.80;99.90
23100;DHT22;53791;50.696;4.396;2023-01-15T09:46:34;5.80;99.90
23100;DHT22;53791;50.696;4.396;2023-01-15T09:52:20;5.70;99.90
23100;DHT22;53791;50.696;4.396;2023-01-15T09:57:35;5.60;99.90
23100;DHT22;53791;50.696;4.396;2023-01-15T10:00:05;5.60;99.90
23100;DHT22;53791;50.696;4.396;2023-01-15T10:02:45;5.50;99.90
23100;DHT22;53791;50.696;4.396;2023-01-15T10:05:34;5.50;99.90
23100;DHT22;53791;50.696;4.396;2023-01-15T10:08:23;5.50;99.90
23100;DHT22;53791;50.696;4.396;2023-01-15T10:11:03;5.50;99.90
23100;DHT22;53791;50.696;4.396;2023-01-15T10:13:40;5.50;99.90
23100;DHT22;53791;50.696;4.396;2023-01-15T10:16:09;5.40;99.90
23100;DHT22;53791;50.696;4.396;2023-01-15T10:18:37;5.50;99.90
23100;DHT22;53791;50.696;4.396;2023-01-15T10:24:25;5.60;99.90
23100;DHT22;53791;50.696;4.396;2023-01-15T10:26:53;5.50;99.90
23100;DHT22;53791;50.696;4.396;2023-01-15T10:32:49;5.50;99.90
23100;DHT22;53791;50.696;4.396;2023-01-15T10:35:42;5.50;99.90
23100;DHT22;53791;50.696;4.396;2023-01-15T10:41:28;5.50;99.90
23100;DHT22;53791;50.696;4.396;2023-01-15T10:44:14;5.80;99.90
23100;DHT22;53791;50.696;4.396;2023-01-15T10:46:40;6.00;99.90
23100;DHT22;53791;50.696;4.396;2023-01-15T10:49:16;6.30;99.90
23100;DHT22;53791;50.696;4.396;2023-01-15T10:51:51;6.40;99.90
23100;DHT22;53791;50.696;4.396;2023-01-15T10:54:39;6.40;99.90
23100;DHT22;53791;50.696;4.396;2023-01-15T10:57:40;6.50;99.90
23100;DHT22;53791;50.696;4.396;2023-01-15T11:00:08;6.50;99.90
23100;DHT22;53791;50.696;4.396;2023-01-15T11:02:55;6.60;99.90
23100;DHT22;53791;50.696;4.396;2023-01-15T11:05:20;6.70;99.90
23100;DHT22;53791;50.696;4.396;2023-01-15T11:07:51;6.90;99.90
23100;DHT22;53791;50.696;4.396;2023-01-15T11:10:20;6.90;99.90
23100;DHT22;53791;50.696;4.396;2023-01-15T11:13:07;6.90;99.90
23100;DHT22;53791;50.696;4.396;2023-01-15T11:15:48;6.70;99.90
23100;DHT22;53791;50.696;4.396;2023-01-15T11:18:38;6.60;99.90
23100;DHT22;53791;50.696;4.396;2023-01-15T11:21:22;6.70;99.90
23100;DHT22;53791;50.696;4.396;2023-01-15T11:23:52;6.70;99.90
23100;DHT22;53791;50.696;4.396;2023-01-15T11:26:24;6.70;99.90
23100;DHT22;53791;50.696;4.396;2023-01-15T11:28:53;6.70;99.90
23100;DHT22;53791;50.696;4.396;2023-01-15T11:31:21;6.70;99.90
23100;DHT22;53791;50.696;4.396;2023-01-15T11:34:01;6.70;99.90
23100;DHT22;53791;50.696;4.396;2023-01-15T11:36:30;6.60;99.90
23100;DHT22;53791;50.696;4.396;2023-01-15T11:41:35;6.50;99.90
23100;DHT22;53791;50.696;4.396;2023-01-15T11:44:27;6.60;99.90
23100;DHT22;53791;50.696;4.396;2023-01-15T11:47:16;6.60;99.90
23100;DHT22;53791;50.696;4.396;2023-01-15T11:50:00;6.70;99.90
23100;DHT22;53791;50.696;4.396;2023-01-15T11:52:51;6.70;99.90
23100;DHT22;53791;50.696;4.396;2023-01-15T11:55:25;6.70;99.90
23100;DHT22;53791;50.696;4.396;2023-01-15T11:57:50;6.70;99.90
23100;DHT22;53791;50.696;4.396;2023-01-15T12:00:22;6.70;99.90
23100;DHT22;53791;50.696;4.396;2023-01-15T12:02:53;6.80;99.90
23100;DHT22;53791;50.696;4.396;2023-01-15T12:05:28;6.70;99.90
23100;DHT22;53791;50.696;4.396;2023-01-15T12:07:59;6.80;99.90
23100;DHT22;53791;50.696;4.396;2023-01-15T12:10:32;6.80;99.90
23100;DHT22;53791;50.696;4.396;2023-01-15T12:16:08;6.80;99.90
23100;DHT22;53791;50.696;4.396;2023-01-15T12:26:41;6.70;99.90
23100;DHT22;53791;50.696;4.396;2023-01-15T12:29:19;6.70;99.90
23100;DHT22;53791;50.696;4.396;2023-01-15T12:37:10;6.60;99.90
23100;DHT22;53791;50.696;4.396;2023-01-15T12:39:44;6.60;99.90
23100;DHT22;53791;50.696;4.396;2023-01-15T12:42:16;6.60;99.90
23100;DHT22;53791;50.696;4.396;2023-01-15T12:45:21;6.60;99.90
23100;DHT22;53791;50.696;4.396;2023-01-15T12:47:56;6.70;99.90
23100;DHT22;53791;50.696;4.396;2023-01-15T12:50:40;6.70;99.90
23100;DHT22;53791;50.696;4.396;2023-01-15T12:53:18;6.70;99.90
23100;DHT22;53791;50.696;4.396;2023-01-15T12:55:57;6.80;99.90
23100;DHT22;53791;50.696;4.396;2023-01-15T13:04:09;6.80;99.90
23100;DHT22;53791;50.696;4.396;2023-01-15T13:06:35;6.80;99.90
23100;DHT22;53791;50.696;4.396;2023-01-15T13:11:34;6.70;99.90
23100;DHT22;53791;50.696;4.396;2023-01-15T13:14:29;6.70;99.90
23100;DHT22;53791;50.696;4.396;2023-01-15T13:17:10;6.60;99.90
23100;DHT22;53791;50.696;4.396;2023-01-15T13:19:50;6.60;99.90
23100;DHT22;53791;50.696;4.396;2023-01-15T13:22:15;6.60;99.90
23100;DHT22;53791;50.696;4.396;2023-01-15T13:25:10;6.60;99.90
23100;DHT22;53791;50.696;4.396;2023-01-15T13:30:44;6.70;99.90
23100;DHT22;53791;50.696;4.396;2023-01-15T13:33:23;6.70;99.90
23100;DHT22;53791;50.696;4.396;2023-01-15T13:35:52;6.70;99.90
23100;DHT22;53791;50.696;4.396;2023-01-15T13:41:24;6.60;99.90
23100;DHT22;53791;50.696;4.396;2023-01-15T13:45:20;6.50;99.90
23100;DHT22;53791;50.696;4.396;2023-01-15T13:47:27;6.40;99.90
23100;DHT22;53791;50.696;4.396;2023-01-15T13:49:57;6.30;99.90
23100;DHT22;53791;50.696;4.396;2023-01-15T13:52:33;6.30;99.90
23100;DHT22;53791;50.696;4.396;2023-01-15T13:57:43;6.30;99.90
23100;DHT22;53791;50.696;4.396;2023-01-15T14:00:31;6.20;99.90
23100;DHT22;53791;50.696;4.396;2023-01-15T14:03:22;6.20;99.90
23100;DHT22;53791;50.696;4.396;2023-01-15T14:05:33;6.20;99.90
23100;DHT22;53791;50.696;4.396;2023-01-15T14:08:13;6.30;99.90
23100;DHT22;53791;50.696;4.396;2023-01-15T14:10:37;6.30;99.90
23100;DHT22;53791;50.696;4.396;2023-01-15T14:13:22;6.20;99.90
23100;DHT22;53791;50.696;4.396;2023-01-15T14:19:06;6.20;99.90
23100;DHT22;53791;50.696;4.396;2023-01-15T14:27:51;6.30;99.90
23100;DHT22;53791;50.696;4.396;2023-01-15T14:33:09;6.30;99.90
23100;DHT22;53791;50.696;4.396;2023-01-15T14:35:44;6.30;99.90
23100;DHT22;53791;50.696;4.396;2023-01-15T14:38:16;6.20;99.90
23100;DHT22;53791;50.696;4.396;2023-01-15T14:40:56;6.30;99.90
23100;DHT22;53791;50.696;4.396;2023-01-15T14:43:32;6.30;99.90
23100;DHT22;53791;50.696;4.396;2023-01-15T14:46:07;6.10;99.90
23100;DHT22;53791;50.696;4.396;2023-01-15T14:48:35;6.10;99.90
23100;DHT22;53791;50.696;4.396;2023-01-15T14:51:15;6.10;99.90
23100;DHT22;53791;50.696;4.396;2023-01-15T14:56:36;6.10;99.90
23100;DHT22;53791;50.696;4.396;2023-01-15T15:02:31;6.10;99.90
23100;DHT22;53791;50.696;4.396;2023-01-15T15:08:17;6.00;99.90
23100;DHT22;53791;50.696;4.396;2023-01-15T15:10:49;5.90;99.90
23100;DHT22;53791;50.696;4.396;2023-01-15T15:13:31;5.90;99.90
23100;DHT22;53791;50.696;4.396;2023-01-15T15:16:17;5.90;99.90
23100;DHT22;53791;50.696;4.396;2023-01-15T15:18:47;5.90;99.90
23100;DHT22;53791;50.696;4.396;2023-01-15T15:21:19;5.80;99.90
23100;DHT22;53791;50.696;4.396;2023-01-15T15:23:54;5.70;99.90
23100;DHT22;53791;50.696;4.396;2023-01-15T15:26:35;5.80;99.90
23100;DHT22;53791;50.696;4.396;2023-01-15T15:29:12;5.70;99.90
23100;DHT22;53791;50.696;4.396;2023-01-15T15:31:48;5.70;99.90
23100;DHT22;53791;50.696;4.396;2023-01-15T15:34:29;5.70;99.90
23100;DHT22;53791;50.696;4.396;2023-01-15T15:37:11;5.80;99.90
23100;DHT22;53791;50.696;4.396;2023-01-15T15:39:40;5.80;99.90
23100;DHT22;53791;50.696;4.396;2023-01-15T15:42:32;5.80;99.90
23100;DHT22;53791;50.696;4.396;2023-01-15T15:45:27;5.80;99.90
23100;DHT22;53791;50.696;4.396;2023-01-15T15:48:30;5.80;99.90
23100;DHT22;53791;50.696;4.396;2023-01-15T15:51:31;5.80;99.90
23100;DHT22;53791;50.696;4.396;2023-01-15T15:54:10;5.80;99.90
23100;DHT22;53791;50.696;4.396;2023-01-15T15:56:57;5.80;99.90
23100;DHT22;53791;50.696;4.396;2023-01-15T15:59:34;5.90;99.90
23100;DHT22;53791;50.696;4.396;2023-01-15T16:02:25;5.80;99.90
23100;DHT22;53791;50.696;4.396;2023-01-15T16:05:01;5.80;99.90
23100;DHT22;53791;50.696;4.396;2023-01-15T16:07:27;5.80;99.90
23100;DHT22;53791;50.696;4.396;2023-01-15T16:10:11;5.70;99.90
23100;DHT22;53791;50.696;4.396;2023-01-15T16:12:35;5.70;99.90
23100;DHT22;53791;50.696;4.396;2023-01-15T16:15:04;5.70;99.90
23100;DHT22;53791;50.696;4.396;2023-01-15T16:23:38;5.60;99.90
23100;DHT22;53791;50.696;4.396;2023-01-15T16:26:18;5.60;99.90
23100;DHT22;53791;50.696;4.396;2023-01-15T16:28:56;5.60;99.90
23100;DHT22;53791;50.696;4.396;2023-01-15T16:31:24;5.50;99.90
23100;DHT22;53791;50.696;4.396;2023-01-15T16:33:57;5.50;99.90
23100;DHT22;53791;50.696;4.396;2023-01-15T16:36:25;5.50;99.90
23100;DHT22;53791;50.696;4.396;2023-01-15T16:38:54;5.50;99.90
23100;DHT22;53791;50.696;4.396;2023-01-15T16:41:28;5.50;99.90
23100;DHT22;53791;50.696;4.396;2023-01-15T16:44:02;5.60;99.90
23100;DHT22;53791;50.696;4.396;2023-01-15T16:46:45;5.60;99.90
23100;DHT22;53791;50.696;4.396;2023-01-15T16:49:23;5.60;99.90
23100;DHT22;53791;50.696;4.396;2023-01-15T16:51:55;5.60;99.90
23100;DHT22;53791;50.696;4.396;2023-01-15T16:57:46;5.70;99.90
23100;DHT22;53791;50.696;4.396;2023-01-15T17:00:25;5.80;99.90
23100;DHT22;53791;50.696;4.396;2023-01-15T17:02:47;5.80;99.90
23100;DHT22;53791;50.696;4.396;2023-01-15T17:05:21;5.80;99.90
23100;DHT22;53791;50.696;4.396;2023-01-15T17:07:50;5.80;99.90
23100;DHT22;53791;50.696;4.396;2023-01-15T17:10:25;5.80;99.90
23100;DHT22;53791;50.696;4.396;2023-01-15T17:12:53;5.80;99.90
23100;DHT22;53791;50.696;4.396;2023-01-15T17:15:32;5.90;99.90
23100;DHT22;53791;50.696;4.396;2023-01-15T17:17:57;5.90;99.90
23100;DHT22;53791;50.696;4.396;2023-01-15T17:20:25;5.90;99.90
23100;DHT22;53791;50.696;4.396;2023-01-15T17:22:53;6.00;99.90
23100;DHT22;53791;50.696;4.396;2023-01-15T17:25:31;6.00;99.90
23100;DHT22;53791;50.696;4.396;2023-01-15T17:27:58;6.00;99.90
23100;DHT22;53791;50.696;4.396;2023-01-15T17:30:28;6.00;99.90
23100;DHT22;53791;50.696;4.396;2023-01-15T17:33:01;6.10;99.90
23100;DHT22;53791;50.696;4.396;2023-01-15T17:35:32;6.10;99.90
23100;DHT22;53791;50.696;4.396;2023-01-15T17:38:00;6.10;99.90
23100;DHT22;53791;50.696;4.396;2023-01-15T17:40:32;6.20;99.90
23100;DHT22;53791;50.696;4.396;2023-01-15T17:43:00;6.20;99.90
23100;DHT22;53791;50.696;4.396;2023-01-15T17:45:30;6.30;99.90
23100;DHT22;53791;50.696;4.396;2023-01-15T17:47:58;6.30;99.90
23100;DHT22;53791;50.696;4.396;2023-01-15T17:50:28;6.30;99.90
23100;DHT22;53791;50.696;4.396;2023-01-15T17:52:56;6.40;99.90
23100;DHT22;53791;50.696;4.396;2023-01-15T17:55:24;6.40;99.90
23100;DHT22;53791;50.696;4.396;2023-01-15T17:58:12;6.40;99.90
23100;DHT22;53791;50.696;4.396;2023-01-15T18:00:58;6.30;99.90
23100;DHT22;53791;50.696;4.396;2023-01-15T18:03:51;6.50;99.90
23100;DHT22;53791;50.696;4.396;2023-01-15T18:06:35;6.40;99.90
23100;DHT22;53791;50.696;4.396;2023-01-15T18:09:04;6.40;99.90
23100;DHT22;53791;50.696;4.396;2023-01-15T18:11:34;6.40;99.90
23100;DHT22;53791;50.696;4.396;2023-01-15T18:14:02;6.40;99.90
23100;DHT22;53791;50.696;4.396;2023-01-15T18:16:30;6.30;99.90
23100;DHT22;53791;50.696;4.396;2023-01-15T18:18:57;6.30;99.90
23100;DHT22;53791;50.696;4.396;2023-01-15T18:21:25;6.30;99.90